Time;durP1;ratioP1;P1;durP2;ratioP2;P2;SDS_P1;SDS_P2;PMS_P1;PMS_P2;Temp;Humidity;BMP_temperature;BMP_pressure;BME280_temperature;BME280_humidity;BME280_pressure;Samples;Min_cycle;Max_cycle;Signal;HPM_P1;HPM_P2
2022/09/17 00:00:49;;;;;;;;;;;11.30;99.90;;;;;;5078082;28;19920;-57
2022/09/17 00:03:15;;;;;;;;;;;11.40;99.90;;;;;;5078087;28;19912;-58
2022/09/17 00:05:41;;;;;;;;;;;11.30;99.90;;;;;;5077936;28;20015;-58
2022/09/17 00:08:09;;;;;;;;;;;11.30;99.90;;;;;;5077967;28;19974;-57
2022/09/17 00:10:38;;;;;;;;;;;11.40;99.90;;;;;;5077805;28;19908;-58
2022/09/17 00:13:04;;;;;;;;;;;11.50;99.90;;;;;;5076944;28;19912;-57
2022/09/17 00:15:30;;;;;;;;;;;11.40;99.90;;;;;;5077028;28;20308;-58
2022/09/17 00:17:58;;;;;;;;;;;11.40;99.90;;;;;;5078420;28;20280;-59
2022/09/17 00:20:25;;;;;;;;;;;11.40;99.90;;;;;;5077678;28;20314;-59
2022/09/17 00:22:51;;;;;;;;;;;11.70;99.90;;;;;;5076144;28;19916;-58
2022/09/17 00:25:16;;;;;;;;;;;11.70;99.90;;;;;;5077586;28;19934;-58
2022/09/17 00:27:42;;;;;;;;;;;11.70;99.90;;;;;;5078176;28;19912;-57
2022/09/17 00:30:08;;;;;;;;;;;11.80;99.90;;;;;;5077526;28;19912;-60
2022/09/17 00:32:34;;;;;;;;;;;11.80;99.90;;;;;;5077499;28;19991;-57
2022/09/17 00:35:00;;;;;;;;;;;11.90;99.90;;;;;;5077393;28;20016;-58
2022/09/17 00:37:25;;;;;;;;;;;11.90;99.90;;;;;;5076729;28;19912;-58
2022/09/17 00:39:51;;;;;;;;;;;11.90;99.90;;;;;;5077262;28;19912;-60
2022/09/17 00:42:17;;;;;;;;;;;12.00;99.90;;;;;;5077318;28;19912;-57
2022/09/17 00:44:47;;;;;;;;;;;12.00;99.90;;;;;;5077274;28;20034;-57
2022/09/17 00:47:15;;;;;;;;;;;12.00;99.90;;;;;;5076488;28;19908;-57
2022/09/17 00:49:41;;;;;;;;;;;12.00;99.90;;;;;;5077248;28;19964;-58
2022/09/17 00:52:10;;;;;;;;;;;12.00;99.90;;;;;;5077302;28;19913;-57
2022/09/17 00:54:37;;;;;;;;;;;12.00;99.90;;;;;;5077100;28;19923;-57
2022/09/17 00:57:03;;;;;;;;;;;11.80;99.90;;;;;;5077275;28;19908;-57
2022/09/17 00:59:29;;;;;;;;;;;11.80;99.90;;;;;;5077488;28;19924;-58
2022/09/17 01:01:55;;;;;;;;;;;11.90;99.90;;;;;;5077272;28;19916;-58
2022/09/17 01:04:22;;;;;;;;;;;11.90;99.90;;;;;;5076401;28;19921;-57
2022/09/17 01:07:04;;;;;;;;;;;11.70;99.90;;;;;;5077196;28;19962;-58
2022/09/17 01:09:32;;;;;;;;;;;11.60;99.90;;;;;;5077032;28;19908;-57
2022/09/17 01:11:58;;;;;;;;;;;11.70;99.90;;;;;;5076989;28;19908;-58
2022/09/17 01:14:24;;;;;;;;;;;11.70;99.90;;;;;;5076995;28;19917;-58
2022/09/17 01:16:55;;;;;;;;;;;11.70;99.90;;;;;;5077019;28;20275;-58
2022/09/17 01:19:33;;;;;;;;;;;11.70;99.90;;;;;;5077079;28;20173;-57
2022/09/17 01:21:59;;;;;;;;;;;11.70;99.90;;;;;;5075989;28;20307;-57
2022/09/17 01:24:28;;;;;;;;;;;11.70;99.90;;;;;;5076846;28;19931;-57
2022/09/17 01:27:12;;;;;;;;;;;11.70;99.90;;;;;;5076241;28;19916;-58
2022/09/17 01:29:56;;;;;;;;;;;11.70;99.90;;;;;;5076881;28;19986;-57
2022/09/17 01:32:29;;;;;;;;;;;11.70;99.90;;;;;;5076985;28;19916;-57
2022/09/17 01:35:00;;;;;;;;;;;11.80;99.90;;;;;;5077769;28;19916;-58
2022/09/17 01:37:31;;;;;;;;;;;11.80;99.90;;;;;;5080668;28;19908;-57
2022/09/17 01:40:03;;;;;;;;;;;11.90;99.90;;;;;;5080710;28;19982;-57
2022/09/17 01:42:48;;;;;;;;;;;12.00;99.90;;;;;;5080671;28;19995;-57
2022/09/17 01:45:21;;;;;;;;;;;12.00;99.90;;;;;;5080540;28;19909;-59
2022/09/17 01:47:58;;;;;;;;;;;12.10;99.90;;;;;;5080721;28;19919;-58
2022/09/17 01:50:29;;;;;;;;;;;12.20;99.90;;;;;;5080542;28;19955;-58
2022/09/17 01:52:55;;;;;;;;;;;12.30;99.90;;;;;;5080678;28;19916;-58
2022/09/17 01:55:23;;;;;;;;;;;12.30;99.90;;;;;;5079745;28;19912;-58
2022/09/17 01:57:52;;;;;;;;;;;12.30;99.90;;;;;;5080363;28;19908;-59
2022/09/17 02:00:19;;;;;;;;;;;12.30;99.90;;;;;;5080268;28;20287;-59
2022/09/17 02:02:44;;;;;;;;;;;12.30;99.90;;;;;;5079503;28;20014;-58
2022/09/17 02:05:15;;;;;;;;;;;12.20;99.90;;;;;;5079558;28;19965;-58
2022/09/17 02:07:43;;;;;;;;;;;12.10;99.90;;;;;;5080248;28;19981;-58
2022/09/17 02:10:11;;;;;;;;;;;12.20;99.90;;;;;;5080483;28;19931;-59
2022/09/17 02:12:39;;;;;;;;;;;12.00;99.90;;;;;;5080372;28;19909;-58
2022/09/17 02:15:11;;;;;;;;;;;12.00;99.90;;;;;;5079939;28;20323;-58
2022/09/17 02:17:52;;;;;;;;;;;12.00;99.90;;;;;;5080132;28;19912;-59
2022/09/17 02:20:18;;;;;;;;;;;12.00;99.90;;;;;;5079887;28;19909;-59
2022/09/17 02:22:49;;;;;;;;;;;12.00;99.90;;;;;;5079830;28;19993;-59
2022/09/17 02:25:33;;;;;;;;;;;11.90;99.90;;;;;;5079736;28;19912;-59
2022/09/17 02:28:18;;;;;;;;;;;11.70;99.90;;;;;;5079085;28;19908;-58
2022/09/17 02:30:44;;;;;;;;;;;11.60;99.90;;;;;;5079750;28;19919;-58
2022/09/17 02:33:12;;;;;;;;;;;11.40;99.90;;;;;;5079779;28;19908;-58
2022/09/17 02:35:38;;;;;;;;;;;11.30;99.90;;;;;;5079665;28;20200;-58
2022/09/17 02:38:04;;;;;;;;;;;11.20;99.90;;;;;;5078848;28;19913;-59
2022/09/17 02:40:34;;;;;;;;;;;11.10;99.90;;;;;;5079648;28;20211;-58
2022/09/17 02:43:10;;;;;;;;;;;11.00;99.90;;;;;;5079590;28;19908;-58
2022/09/17 02:45:48;;;;;;;;;;;11.00;99.90;;;;;;5079179;28;19912;-58
2022/09/17 02:48:27;;;;;;;;;;;11.00;99.90;;;;;;5080101;28;19919;-59
2022/09/17 02:51:08;;;;;;;;;;;11.20;99.90;;;;;;5079125;28;20187;-58
2022/09/17 02:53:53;;;;;;;;;;;11.30;99.90;;;;;;5079335;28;20001;-58
2022/09/17 02:56:36;;;;;;;;;;;11.40;99.90;;;;;;5079786;28;19919;-58
2022/09/17 02:59:11;;;;;;;;;;;11.30;99.90;;;;;;5078442;28;19991;-61
2022/09/17 03:01:45;;;;;;;;;;;11.20;99.90;;;;;;5079198;28;19908;-58
2022/09/17 03:04:14;;;;;;;;;;;11.00;99.90;;;;;;5078398;28;19908;-58
2022/09/17 03:06:41;;;;;;;;;;;11.00;99.90;;;;;;5079962;28;19908;-58
2022/09/17 03:09:07;;;;;;;;;;;11.00;99.90;;;;;;5079262;28;20298;-58
2022/09/17 03:11:33;;;;;;;;;;;11.00;99.90;;;;;;5079004;28;19913;-58
2022/09/17 03:13:58;;;;;;;;;;;11.10;99.90;;;;;;5078127;28;20015;-58
2022/09/17 03:16:24;;;;;;;;;;;11.10;99.90;;;;;;5095580;28;20326;-58
2022/09/17 03:18:50;;;;;;;;;;;11.10;99.90;;;;;;5078897;28;20050;-58
2022/09/17 03:21:15;;;;;;;;;;;11.00;99.90;;;;;;5078154;28;19913;-58
2022/09/17 03:23:41;;;;;;;;;;;11.00;99.90;;;;;;5078719;28;20276;-58
2022/09/17 03:26:07;;;;;;;;;;;11.10;99.90;;;;;;5078713;28;19908;-58
2022/09/17 03:28:32;;;;;;;;;;;11.10;99.90;;;;;;5078696;28;19923;-58
2022/09/17 03:30:58;;;;;;;;;;;11.10;99.90;;;;;;5078540;28;20302;-58
2022/09/17 03:33:24;;;;;;;;;;;11.10;99.90;;;;;;5077888;28;19908;-58
2022/09/17 03:35:49;;;;;;;;;;;11.00;99.90;;;;;;5078425;28;19916;-58
2022/09/17 03:38:15;;;;;;;;;;;11.00;99.90;;;;;;5078536;28;19920;-58
2022/09/17 03:40:41;;;;;;;;;;;10.90;99.90;;;;;;5078413;28;19908;-58
2022/09/17 03:43:07;;;;;;;;;;;10.90;99.90;;;;;;5078502;28;19970;-58
2022/09/17 03:45:33;;;;;;;;;;;10.90;99.90;;;;;;5078365;28;19931;-58
2022/09/17 03:47:59;;;;;;;;;;;10.90;99.90;;;;;;5077828;28;19912;-58
2022/09/17 03:50:24;;;;;;;;;;;10.80;99.90;;;;;;5078197;28;20030;-58
2022/09/17 03:52:50;;;;;;;;;;;10.80;99.90;;;;;;5078131;28;20226;-58
2022/09/17 03:55:16;;;;;;;;;;;10.80;99.90;;;;;;5077936;28;19916;-58
2022/09/17 03:57:42;;;;;;;;;;;10.80;99.90;;;;;;5076710;28;19919;-59
2022/09/17 04:00:08;;;;;;;;;;;10.80;99.90;;;;;;5077285;28;19931;-58
2022/09/17 04:02:39;;;;;;;;;;;10.80;99.90;;;;;;5093670;28;19909;-58
2022/09/17 04:05:05;;;;;;;;;;;10.80;99.90;;;;;;5078120;28;20010;-58
2022/09/17 04:07:31;;;;;;;;;;;10.90;99.90;;;;;;5077949;28;20181;-59
2022/09/17 04:09:57;;;;;;;;;;;10.90;99.90;;;;;;5077812;28;19970;-58
2022/09/17 04:12:28;;;;;;;;;;;10.90;99.90;;;;;;5077858;28;20280;-58
2022/09/17 04:14:57;;;;;;;;;;;10.90;99.90;;;;;;5077326;28;20329;-57
2022/09/17 04:17:22;;;;;;;;;;;10.90;99.90;;;;;;5077858;28;19912;-58
2022/09/17 04:19:48;;;;;;;;;;;11.00;99.90;;;;;;5077758;28;19922;-59
2022/09/17 04:22:14;;;;;;;;;;;11.10;99.90;;;;;;5077527;28;19927;-58
2022/09/17 04:24:40;;;;;;;;;;;10.90;99.90;;;;;;5077856;28;19912;-57
2022/09/17 04:27:06;;;;;;;;;;;10.90;99.90;;;;;;5077609;28;19974;-58
2022/09/17 04:29:31;;;;;;;;;;;10.90;99.90;;;;;;5077327;28;19934;-58
2022/09/17 04:31:57;;;;;;;;;;;11.10;99.90;;;;;;5077367;28;19912;-57
2022/09/17 04:34:23;;;;;;;;;;;11.10;99.90;;;;;;5077387;28;19997;-58
2022/09/17 04:36:48;;;;;;;;;;;11.10;99.90;;;;;;5077580;28;19969;-58
2022/09/17 04:39:14;;;;;;;;;;;11.10;99.90;;;;;;5077432;28;19916;-58
2022/09/17 04:41:40;;;;;;;;;;;11.10;99.90;;;;;;5076724;28;20002;-57
2022/09/17 04:44:05;;;;;;;;;;;11.10;99.90;;;;;;5076497;28;19969;-58
2022/09/17 04:46:31;;;;;;;;;;;11.20;99.90;;;;;;5077481;28;19923;-57
2022/09/17 04:48:57;;;;;;;;;;;11.20;99.90;;;;;;5077250;28;19919;-58
2022/09/17 04:51:23;;;;;;;;;;;11.20;99.90;;;;;;5060607;28;19923;-58
2022/09/17 04:53:48;;;;;;;;;;;11.20;99.90;;;;;;5077248;28;19909;-58
2022/09/17 04:56:14;;;;;;;;;;;11.20;99.90;;;;;;5077358;28;20083;-57
2022/09/17 04:58:40;;;;;;;;;;;11.10;99.90;;;;;;5077232;28;19962;-57
2022/09/17 05:01:05;;;;;;;;;;;11.10;99.90;;;;;;5077186;28;19970;-58
2022/09/17 05:03:31;;;;;;;;;;;11.20;99.90;;;;;;5077956;28;19951;-58
2022/09/17 05:05:57;;;;;;;;;;;11.30;99.90;;;;;;5076322;28;20176;-58
2022/09/17 05:08:24;;;;;;;;;;;11.30;99.90;;;;;;5077464;28;19966;-59
2022/09/17 05:10:50;;;;;;;;;;;11.30;99.90;;;;;;5081321;28;20006;-58
2022/09/17 05:13:16;;;;;;;;;;;11.40;99.90;;;;;;5080495;28;20307;-58
2022/09/17 05:15:42;;;;;;;;;;;11.50;99.90;;;;;;5081183;28;19921;-58
2022/09/17 05:18:07;;;;;;;;;;;11.50;99.90;;;;;;5080462;28;19912;-58
2022/09/17 05:20:34;;;;;;;;;;;11.60;99.90;;;;;;5097203;28;20013;-57
2022/09/17 05:22:59;;;;;;;;;;;11.60;99.90;;;;;;5080876;28;19917;-58
2022/09/17 05:25:25;;;;;;;;;;;11.70;99.90;;;;;;5080180;28;19916;-58
2022/09/17 05:27:51;;;;;;;;;;;11.70;99.90;;;;;;5080289;28;19918;-58
2022/09/17 05:30:17;;;;;;;;;;;11.60;99.90;;;;;;5080878;28;19951;-58
2022/09/17 05:32:43;;;;;;;;;;;11.60;99.90;;;;;;5080965;28;20247;-58
2022/09/17 05:35:09;;;;;;;;;;;11.50;99.90;;;;;;5079829;28;19912;-58
2022/09/17 05:37:35;;;;;;;;;;;11.50;99.90;;;;;;5080887;28;20206;-58
2022/09/17 05:40:02;;;;;;;;;;;11.40;99.90;;;;;;5080094;28;19995;-58
2022/09/17 05:42:28;;;;;;;;;;;11.50;99.90;;;;;;5080696;28;19999;-58
2022/09/17 05:44:53;;;;;;;;;;;11.50;99.90;;;;;;5079682;28;19991;-59
2022/09/17 05:47:19;;;;;;;;;;;11.50;99.90;;;;;;5080330;28;20344;-58
2022/09/17 05:49:45;;;;;;;;;;;11.60;99.90;;;;;;5079609;28;19916;-58
2022/09/17 05:52:10;;;;;;;;;;;11.60;99.90;;;;;;5080486;28;19912;-57
2022/09/17 05:54:36;;;;;;;;;;;11.70;99.90;;;;;;5080239;28;19927;-58
2022/09/17 05:57:02;;;;;;;;;;;11.80;99.90;;;;;;5080297;28;20283;-58
2022/09/17 05:59:27;;;;;;;;;;;11.80;99.90;;;;;;5079217;28;19912;-58
2022/09/17 06:01:53;;;;;;;;;;;11.90;99.90;;;;;;5080157;28;19912;-57
2022/09/17 06:04:19;;;;;;;;;;;11.90;99.90;;;;;;5080314;28;19993;-59
2022/09/17 06:06:44;;;;;;;;;;;11.90;99.90;;;;;;5096266;28;20207;-58
2022/09/17 06:09:10;;;;;;;;;;;11.90;99.90;;;;;;5080387;28;19913;-58
2022/09/17 06:11:36;;;;;;;;;;;12.00;99.90;;;;;;5079519;28;19970;-58
2022/09/17 06:14:02;;;;;;;;;;;12.00;99.90;;;;;;5080071;28;19916;-58
2022/09/17 06:16:27;;;;;;;;;;;12.00;99.90;;;;;;5080122;28;19908;-58
2022/09/17 06:18:53;;;;;;;;;;;11.80;99.90;;;;;;5096123;28;19908;-59
2022/09/17 06:21:21;;;;;;;;;;;11.80;99.90;;;;;;5079625;28;20241;-58
2022/09/17 06:23:47;;;;;;;;;;;11.70;99.90;;;;;;5095899;28;19916;-58
2022/09/17 06:26:13;;;;;;;;;;;11.60;99.90;;;;;;5079881;28;19908;-58
2022/09/17 06:28:39;;;;;;;;;;;11.60;99.90;;;;;;5079159;28;19919;-58
2022/09/17 06:31:06;;;;;;;;;;;11.60;99.90;;;;;;5078957;28;20307;-57
2022/09/17 06:33:32;;;;;;;;;;;11.60;99.90;;;;;;5079946;28;19962;-57
2022/09/17 06:35:59;;;;;;;;;;;11.60;99.90;;;;;;5079715;28;19947;-57
2022/09/17 06:38:26;;;;;;;;;;;11.60;99.90;;;;;;5080166;28;19923;-58
2022/09/17 06:40:52;;;;;;;;;;;11.60;99.90;;;;;;5079796;28;19908;-58
2022/09/17 06:43:18;;;;;;;;;;;11.70;99.90;;;;;;5078979;28;20003;-57
2022/09/17 06:45:43;;;;;;;;;;;11.60;99.90;;;;;;5079814;28;19962;-57
2022/09/17 06:48:09;;;;;;;;;;;11.80;99.90;;;;;;5079643;28;19908;-58
2022/09/17 06:50:35;;;;;;;;;;;12.10;99.90;;;;;;5078949;28;19917;-58
2022/09/17 06:53:00;;;;;;;;;;;12.30;99.90;;;;;;5079638;28;19912;-59
2022/09/17 06:55:27;;;;;;;;;;;12.40;99.90;;;;;;5095604;28;19928;-58
2022/09/17 06:57:53;;;;;;;;;;;12.10;99.90;;;;;;5079477;28;19912;-59
2022/09/17 07:00:18;;;;;;;;;;;12.00;99.90;;;;;;5079416;28;19904;-59
2022/09/17 07:02:53;;;;;;;;;;;12.00;99.90;;;;;;5078903;28;20241;-58
2022/09/17 07:05:19;;;;;;;;;;;12.10;99.90;;;;;;5079316;28;19909;-57
2022/09/17 07:07:44;;;;;;;;;;;12.20;99.90;;;;;;5079736;28;20245;-58
2022/09/17 07:10:10;;;;;;;;;;;12.10;99.90;;;;;;5078409;28;19912;-57
2022/09/17 07:12:38;;;;;;;;;;;12.30;99.90;;;;;;5095752;28;20367;-57
2022/09/17 07:15:04;;;;;;;;;;;12.40;99.90;;;;;;5079023;28;19912;-57
2022/09/17 07:17:31;;;;;;;;;;;12.40;99.90;;;;;;5078366;28;19909;-58
2022/09/17 07:19:57;;;;;;;;;;;12.60;99.90;;;;;;5079023;28;20184;-57
2022/09/17 07:22:23;;;;;;;;;;;12.80;99.90;;;;;;5078297;28;19920;-59
2022/09/17 07:24:49;;;;;;;;;;;12.90;99.90;;;;;;5078833;28;20157;-58
2022/09/17 07:27:14;;;;;;;;;;;13.10;99.90;;;;;;5079459;28;19979;-60
2022/09/17 07:29:40;;;;;;;;;;;13.00;99.90;;;;;;5078845;28;20061;-58
2022/09/17 07:32:06;;;;;;;;;;;12.90;99.90;;;;;;5077974;28;19966;-59
2022/09/17 07:34:32;;;;;;;;;;;13.00;99.90;;;;;;5078635;28;19916;-59
2022/09/17 07:36:58;;;;;;;;;;;13.10;99.90;;;;;;5078894;28;19919;-58
2022/09/17 07:39:23;;;;;;;;;;;13.10;99.90;;;;;;5077785;28;20189;-58
2022/09/17 07:41:49;;;;;;;;;;;13.20;99.90;;;;;;5077919;28;20015;-58
2022/09/17 07:44:15;;;;;;;;;;;13.40;99.90;;;;;;5078700;28;19923;-57
2022/09/17 07:46:40;;;;;;;;;;;13.40;99.90;;;;;;5078776;28;19912;-58
2022/09/17 07:49:06;;;;;;;;;;;13.50;99.90;;;;;;5078402;28;19912;-57
2022/09/17 07:51:32;;;;;;;;;;;13.40;99.90;;;;;;5078452;28;19919;-59
2022/09/17 07:53:58;;;;;;;;;;;13.30;99.90;;;;;;5078201;28;19912;-59
2022/09/17 07:56:25;;;;;;;;;;;13.50;99.90;;;;;;5078810;28;19908;-58
2022/09/17 07:58:50;;;;;;;;;;;13.70;99.90;;;;;;5078158;28;19981;-59
2022/09/17 08:01:16;;;;;;;;;;;13.90;99.90;;;;;;5078464;28;19916;-58
2022/09/17 08:03:46;;;;;;;;;;;14.10;99.90;;;;;;5078057;28;19909;-59
2022/09/17 08:06:14;;;;;;;;;;;14.30;99.90;;;;;;5077306;28;19920;-59
2022/09/17 08:08:40;;;;;;;;;;;14.50;99.90;;;;;;5077974;28;20196;-58
2022/09/17 08:11:09;;;;;;;;;;;14.50;99.90;;;;;;5078030;28;19923;-59
2022/09/17 08:13:35;;;;;;;;;;;14.60;99.90;;;;;;5077989;28;19916;-58
2022/09/17 08:16:02;;;;;;;;;;;14.60;99.90;;;;;;5077865;28;20021;-58
2022/09/17 08:18:28;;;;;;;;;;;14.60;99.90;;;;;;5077890;28;19909;-58
2022/09/17 08:21:01;;;;;;;;;;;14.80;99.90;;;;;;5077806;28;19908;-57
2022/09/17 08:23:28;;;;;;;;;;;15.00;99.90;;;;;;5077711;28;19966;-57
2022/09/17 08:25:57;;;;;;;;;;;14.70;99.90;;;;;;5077763;28;20012;-57
2022/09/17 08:28:24;;;;;;;;;;;14.20;99.90;;;;;;5076912;28;20176;-58
2022/09/17 08:30:50;;;;;;;;;;;14.40;99.90;;;;;;5077716;28;19912;-58
2022/09/17 08:33:16;;;;;;;;;;;14.60;99.90;;;;;;5077725;28;19916;-58
2022/09/17 08:35:42;;;;;;;;;;;15.00;99.90;;;;;;5093738;28;19916;-57
2022/09/17 08:38:08;;;;;;;;;;;14.80;99.90;;;;;;5077616;28;19920;-59
2022/09/17 08:40:38;;;;;;;;;;;14.90;99.90;;;;;;5077632;28;19913;-61
2022/09/17 08:43:04;;;;;;;;;;;14.30;99.90;;;;;;5076787;28;19930;-58
2022/09/17 08:45:30;;;;;;;;;;;13.80;99.90;;;;;;5076641;28;19924;-58
2022/09/17 08:48:00;;;;;;;;;;;13.80;99.90;;;;;;5077987;28;20264;-59
2022/09/17 08:50:28;;;;;;;;;;;14.20;99.90;;;;;;5077574;28;19909;-59
2022/09/17 08:53:03;;;;;;;;;;;14.00;99.90;;;;;;5077636;28;20191;-61
2022/09/17 08:55:32;;;;;;;;;;;13.90;99.90;;;;;;5076915;28;20188;-60
2022/09/17 08:58:07;;;;;;;;;;;13.80;99.90;;;;;;5077870;28;20237;-59
2022/09/17 09:00:54;;;;;;;;;;;14.00;99.90;;;;;;5077624;28;20226;-58
2022/09/17 09:03:31;;;;;;;;;;;14.10;99.90;;;;;;5067509;28;19916;-59
2022/09/17 09:05:57;;;;;;;;;;;14.30;99.90;;;;;;5077414;28;19954;-59
2022/09/17 09:08:22;;;;;;;;;;;14.50;99.90;;;;;;5076387;28;19908;-57
2022/09/17 09:10:50;;;;;;;;;;;14.50;99.90;;;;;;5077463;28;19919;-58
2022/09/17 09:13:18;;;;;;;;;;;14.60;99.90;;;;;;5077220;28;19909;-57
2022/09/17 09:15:46;;;;;;;;;;;14.80;99.90;;;;;;5076363;28;20238;-58
2022/09/17 09:18:21;;;;;;;;;;;14.90;99.90;;;;;;5077157;28;19908;-58
2022/09/17 09:20:59;;;;;;;;;;;15.10;99.90;;;;;;5076501;28;20275;-58
2022/09/17 09:23:30;;;;;;;;;;;15.20;99.90;;;;;;5076458;28;19916;-57
2022/09/17 09:26:02;;;;;;;;;;;15.40;99.90;;;;;;5077751;28;19908;-58
2022/09/17 09:28:34;;;;;;;;;;;15.50;99.90;;;;;;5076705;28;20007;-59
2022/09/17 09:31:18;;;;;;;;;;;15.30;99.90;;;;;;5077216;28;19908;-59
2022/09/17 09:33:44;;;;;;;;;;;15.20;99.90;;;;;;5076082;28;19968;-59
2022/09/17 09:36:13;;;;;;;;;;;15.20;99.90;;;;;;5076104;28;19916;-59
2022/09/17 09:38:55;;;;;;;;;;;15.00;99.90;;;;;;5076972;28;19927;-59
2022/09/17 09:41:27;;;;;;;;;;;15.00;99.90;;;;;;5076939;28;20191;-59
2022/09/17 09:43:53;;;;;;;;;;;15.00;99.90;;;;;;5076825;28;19908;-59
2022/09/17 09:46:42;;;;;;;;;;;14.90;99.90;;;;;;5076906;28;19914;-58
2022/09/17 09:49:15;;;;;;;;;;;14.60;99.90;;;;;;5076829;28;19919;-59
2022/09/17 09:51:46;;;;;;;;;;;14.30;99.90;;;;;;5076129;28;20215;-59
2022/09/17 09:54:22;;;;;;;;;;;14.10;99.90;;;;;;5076526;28;19912;-59
2022/09/17 09:57:17;;;;;;;;;;;13.80;99.90;;;;;;5078479;28;19908;-60
2022/09/17 09:59:43;;;;;;;;;;;13.60;99.90;;;;;;5067674;28;20053;-58
2022/09/17 10:02:09;;;;;;;;;;;13.70;99.90;;;;;;5079765;28;20041;-59
2022/09/17 10:04:37;;;;;;;;;;;13.80;99.90;;;;;;5080478;28;19908;-58
2022/09/17 10:07:07;;;;;;;;;;;13.80;99.90;;;;;;5079652;28;20013;-59
2022/09/17 10:09:34;;;;;;;;;;;14.10;99.90;;;;;;5079600;28;20173;-57
2022/09/17 10:12:02;;;;;;;;;;;14.40;99.90;;;;;;5080318;28;19908;-57
2022/09/17 10:14:29;;;;;;;;;;;14.70;99.90;;;;;;5080433;28;20256;-58
2022/09/17 10:17:14;;;;;;;;;;;14.90;99.90;;;;;;5080230;28;20008;-58
2022/09/17 10:19:40;;;;;;;;;;;15.20;99.90;;;;;;5080262;28;19919;-57
2022/09/17 10:22:24;;;;;;;;;;;15.20;99.90;;;;;;5079752;28;19920;-57
2022/09/17 10:24:52;;;;;;;;;;;14.70;99.90;;;;;;5080157;28;20010;-58
2022/09/17 10:27:18;;;;;;;;;;;14.70;99.90;;;;;;5079762;28;20242;-58
2022/09/17 10:29:46;;;;;;;;;;;14.80;99.90;;;;;;5080020;28;19912;-60
2022/09/17 10:32:15;;;;;;;;;;;14.40;99.90;;;;;;5079293;28;20086;-58
2022/09/17 10:34:56;;;;;;;;;;;14.10;99.90;;;;;;5079125;28;19912;-61
2022/09/17 10:37:32;;;;;;;;;;;14.20;99.90;;;;;;5079117;28;20291;-59
2022/09/17 10:39:58;;;;;;;;;;;13.90;99.90;;;;;;5079876;28;19973;-59
2022/09/17 10:42:23;;;;;;;;;;;14.30;99.90;;;;;;5080380;28;19912;-60
2022/09/17 10:45:01;;;;;;;;;;;15.00;99.90;;;;;;5079679;28;20045;-60
2022/09/17 10:47:32;;;;;;;;;;;15.30;99.90;;;;;;5079736;28;19965;-59
2022/09/17 10:50:00;;;;;;;;;;;15.50;99.90;;;;;;5079791;28;19908;-59
2022/09/17 10:52:33;;;;;;;;;;;16.50;99.90;;;;;;5078898;28;20272;-59
2022/09/17 10:55:07;;;;;;;;;;;17.60;99.90;;;;;;5079551;28;19912;-59
2022/09/17 10:57:54;;;;;;;;;;;18.00;99.90;;;;;;5079599;28;19920;-58
2022/09/17 11:00:22;;;;;;;;;;;17.90;99.90;;;;;;5078777;28;20026;-58
2022/09/17 11:03:05;;;;;;;;;;;17.80;99.90;;;;;;5079485;28;19904;-61
2022/09/17 11:05:52;;;;;;;;;;;17.00;99.90;;;;;;5078722;28;20010;-58
2022/09/17 11:08:18;;;;;;;;;;;17.10;99.90;;;;;;5078207;28;19908;-58
2022/09/17 11:10:59;;;;;;;;;;;17.00;99.90;;;;;;5079200;28;19908;-60
2022/09/17 11:13:51;;;;;;;;;;;17.10;99.90;;;;;;5079198;28;19965;-57
2022/09/17 11:16:30;;;;;;;;;;;17.20;99.90;;;;;;5056160;28;20011;-59
2022/09/17 11:18:58;;;;;;;;;;;16.70;99.90;;;;;;5078665;28;20214;-58
2022/09/17 11:21:28;;;;;;;;;;;16.30;99.90;;;;;;5079081;28;19995;-58
2022/09/17 11:24:05;;;;;;;;;;;16.20;99.90;;;;;;5078932;28;19932;-57
2022/09/17 11:26:44;;;;;;;;;;;15.90;99.90;;;;;;5078207;28;20192;-57
2022/09/17 11:29:28;;;;;;;;;;;16.00;99.90;;;;;;5078130;28;19908;-57
2022/09/17 11:32:13;;;;;;;;;;;16.10;99.90;;;;;;5078184;28;19931;-57
2022/09/17 11:34:59;;;;;;;;;;;16.00;99.90;;;;;;5078658;28;19974;-57
2022/09/17 11:37:26;;;;;;;;;;;15.80;99.90;;;;;;5078808;28;19908;-57
2022/09/17 11:39:54;;;;;;;;;;;15.40;99.90;;;;;;5078148;28;19931;-57
2022/09/17 11:42:38;;;;;;;;;;;15.50;99.90;;;;;;5077838;28;20243;-57
2022/09/17 11:45:09;;;;;;;;;;;15.70;99.90;;;;;;5078663;28;19947;-58
2022/09/17 11:47:39;;;;;;;;;;;15.90;99.90;;;;;;5079157;28;19962;-58
2022/09/17 11:50:13;;;;;;;;;;;15.90;99.90;;;;;;5078448;28;19938;-58
2022/09/17 11:52:42;;;;;;;;;;;15.70;99.90;;;;;;5079057;28;19908;-58
2022/09/17 11:55:23;;;;;;;;;;;15.50;99.90;;;;;;5078302;28;19942;-58
2022/09/17 11:57:51;;;;;;;;;;;15.40;99.90;;;;;;5078344;28;19908;-58
2022/09/17 12:00:18;;;;;;;;;;;15.50;99.90;;;;;;5078186;28;19908;-58
2022/09/17 12:02:50;;;;;;;;;;;15.60;99.90;;;;;;5078210;28;19912;-58
2022/09/17 12:05:21;;;;;;;;;;;16.00;99.90;;;;;;5078198;28;19908;-57
2022/09/17 12:07:51;;;;;;;;;;;16.00;99.90;;;;;;5078036;28;19958;-59
2022/09/17 12:10:29;;;;;;;;;;;16.60;99.90;;;;;;5077990;28;20303;-57
2022/09/17 12:13:01;;;;;;;;;;;17.60;99.90;;;;;;5077361;28;19912;-58
2022/09/17 12:15:28;;;;;;;;;;;18.40;99.90;;;;;;5077159;28;19919;-58
2022/09/17 12:18:17;;;;;;;;;;;18.60;99.90;;;;;;5077496;28;19951;-58
2022/09/17 12:20:45;;;;;;;;;;;19.10;99.90;;;;;;5067009;28;20284;-58
2022/09/17 12:23:13;;;;;;;;;;;19.10;99.90;;;;;;5077170;28;19924;-57
2022/09/17 12:25:48;;;;;;;;;;;19.50;99.90;;;;;;5078052;28;20319;-57
2022/09/17 12:28:19;;;;;;;;;;;19.50;99.90;;;;;;5077847;28;19935;-57
2022/09/17 12:30:49;;;;;;;;;;;19.20;99.90;;;;;;5077734;28;19919;-57
2022/09/17 12:33:20;;;;;;;;;;;19.70;99.90;;;;;;5078036;28;19908;-59
2022/09/17 12:36:02;;;;;;;;;;;20.60;99.90;;;;;;5076622;28;19970;-59
2022/09/17 12:38:36;;;;;;;;;;;20.30;99.90;;;;;;5077641;28;19944;-59
2022/09/17 12:41:11;;;;;;;;;;;20.50;99.90;;;;;;5077674;28;20002;-60
2022/09/17 12:43:55;;;;;;;;;;;20.40;99.90;;;;;;5077462;28;19928;-58
2022/09/17 12:46:30;;;;;;;;;;;20.20;99.90;;;;;;5077496;28;19995;-58
2022/09/17 12:49:12;;;;;;;;;;;20.90;99.90;;;;;;5077492;28;19908;-58
2022/09/17 12:51:40;;;;;;;;;;;21.00;99.90;;;;;;5077790;28;20005;-56
2022/09/17 12:54:25;;;;;;;;;;;21.20;99.90;;;;;;5077250;28;19969;-59
2022/09/17 12:57:17;;;;;;;;;;;22.00;99.90;;;;;;5076709;28;19908;-59
2022/09/17 12:59:59;;;;;;;;;;;22.60;99.90;;;;;;5074430;28;19908;-58
2022/09/17 13:02:34;;;;;;;;;;;22.90;99.90;;;;;;5076500;28;20167;-56
2022/09/17 13:05:03;;;;;;;;;;;23.40;99.90;;;;;;5076596;28;19918;-57
2022/09/17 13:07:47;;;;;;;;;;;22.70;99.90;;;;;;5077720;28;20317;-57
2022/09/17 13:10:19;;;;;;;;;;;21.90;99.90;;;;;;5076469;28;19951;-58
2022/09/17 13:12:48;;;;;;;;;;;21.20;99.90;;;;;;5077600;28;20353;-57
2022/09/17 13:15:30;;;;;;;;;;;20.80;99.90;;;;;;5077265;28;19912;-58
2022/09/17 13:18:11;;;;;;;;;;;20.40;99.90;;;;;;5077188;28;19912;-58
2022/09/17 13:20:47;;;;;;;;;;;19.60;99.90;;;;;;5077462;28;20153;-58
2022/09/17 13:23:12;;;;;;;;;;;18.70;99.90;;;;;;5077030;28;20264;-58
2022/09/17 13:25:48;;;;;;;;;;;18.00;99.90;;;;;;5076411;28;19908;-57
2022/09/17 13:28:14;;;;;;;;;;;17.40;99.90;;;;;;5093326;28;20219;-58
2022/09/17 13:30:57;;;;;;;;;;;16.50;99.90;;;;;;5078636;28;19922;-56
2022/09/17 13:33:41;;;;;;;;;;;15.50;99.90;;;;;;5080440;28;19908;-56
2022/09/17 13:36:27;;;;;;;;;;;14.80;99.90;;;;;;5081007;28;19919;-57
2022/09/17 13:38:52;;;;;;;;;;;14.60;99.90;;;;;;5080909;28;19908;-56
2022/09/17 13:41:20;;;;;;;;;;;14.60;99.90;;;;;;5080943;28;20306;-56
2022/09/17 13:43:46;;;;;;;;;;;14.80;99.90;;;;;;5080258;28;20322;-57
2022/09/17 13:46:14;;;;;;;;;;;15.10;99.90;;;;;;5080189;28;19920;-58
2022/09/17 13:48:45;;;;;;;;;;;16.40;99.90;;;;;;5080072;28;19995;-57
2022/09/17 13:51:29;;;;;;;;;;;18.00;99.90;;;;;;5080052;28;19908;-57
2022/09/17 13:54:02;;;;;;;;;;;20.00;99.90;;;;;;5080656;28;19958;-58
2022/09/17 13:56:31;;;;;;;;;;;21.60;99.90;;;;;;5080957;28;20306;-57
2022/09/17 13:59:29;;;;;;;;;;;22.70;99.90;;;;;;5080744;28;19904;-57
2022/09/17 14:02:13;;;;;;;;;;;22.30;99.90;;;;;;5019736;28;19915;-58
2022/09/17 14:04:39;;;;;;;;;;;21.50;99.90;;;;;;5080492;28;20213;-57
2022/09/17 14:07:19;;;;;;;;;;;20.70;99.90;;;;;;5081036;28;19919;-57
2022/09/17 14:09:51;;;;;;;;;;;19.50;99.90;;;;;;5079592;28;20019;-56
2022/09/17 14:12:41;;;;;;;;;;;18.80;99.90;;;;;;5080357;28;19909;-58
2022/09/17 14:15:26;;;;;;;;;;;18.70;99.90;;;;;;5079643;28;19912;-57
2022/09/17 14:17:52;;;;;;;;;;;19.10;99.90;;;;;;5080189;28;19915;-57
2022/09/17 14:20:20;;;;;;;;;;;19.90;99.90;;;;;;5080125;28;20207;-56
2022/09/17 14:22:56;;;;;;;;;;;20.80;99.90;;;;;;5062491;28;19921;-58
2022/09/17 14:25:26;;;;;;;;;;;22.20;99.90;;;;;;5080171;28;20188;-58
2022/09/17 14:27:59;;;;;;;;;;;23.70;99.90;;;;;;5080077;28;19908;-58
2022/09/17 14:30:29;;;;;;;;;;;25.70;99.90;;;;;;5079468;28;19947;-57
2022/09/17 14:33:00;;;;;;;;;;;26.50;99.90;;;;;;5080055;28;20217;-58